Time;durP1;ratioP1;P1;durP2;ratioP2;P2;SDS_P1;SDS_P2;PMS_P1;PMS_P2;Temp;Humidity;BMP_temperature;BMP_pressure;BME280_temperature;BME280_humidity;BME280_pressure;Samples;Min_cycle;Max_cycle;Signal;HPM_P1;HPM_P2
2021/04/01 00:01:46;;;;;;;88.07;44.47;;;11.10;96.90;;;;;;4984828;28;20682;-85
2021/04/01 00:04:12;;;;;;;74.55;41.15;;;11.10;97.60;;;;;;4992667;28;20038;-84
2021/04/01 00:06:38;;;;;;;82.85;42.38;;;11.00;98.50;;;;;;4984572;28;20081;-83
2021/04/01 00:09:04;;;;;;;77.63;39.40;;;11.00;98.10;;;;;;4985065;28;20034;-83
2021/04/01 00:11:29;;;;;;;75.65;37.63;;;11.00;98.60;;;;;;4990300;28;20041;-83
2021/04/01 00:13:55;;;;;;;69.95;37.40;;;11.00;99.20;;;;;;4991139;28;20113;-83
2021/04/01 00:16:22;;;;;;;73.05;37.80;;;11.00;98.20;;;;;;4989535;28;20520;-84
2021/04/01 00:18:48;;;;;;;71.20;38.35;;;11.00;98.70;;;;;;4986948;28;20026;-83
2021/04/01 00:21:14;;;;;;;77.30;37.80;;;11.00;98.50;;;;;;4990053;28;20114;-84
2021/04/01 00:23:39;;;;;;;74.38;36.42;;;11.00;98.60;;;;;;4990025;28;20073;-84
2021/04/01 00:26:06;;;;;;;71.15;36.88;;;11.00;99.50;;;;;;4992096;28;20022;-84
2021/04/01 00:28:32;;;;;;;65.70;36.90;;;11.00;99.20;;;;;;4989850;28;20030;-83
2021/04/01 00:30:57;;;;;;;69.00;34.83;;;11.00;99.70;;;;;;4990929;28;20502;-83
2021/04/01 00:33:23;;;;;;;70.20;34.25;;;10.90;99.90;;;;;;4988850;28;20038;-84
2021/04/01 00:35:49;;;;;;;56.40;32.83;;;11.00;99.70;;;;;;4972524;28;20084;-83
2021/04/01 00:38:14;;;;;;;63.35;32.10;;;11.00;99.10;;;;;;4989724;28;20054;-84
2021/04/01 00:40:40;;;;;;;62.00;30.58;;;11.00;99.90;;;;;;4970574;28;20027;-84
2021/04/01 00:43:05;;;;;;;62.30;30.25;;;10.90;99.90;;;;;;4991871;28;20026;-83
2021/04/01 00:45:31;;;;;;;51.92;28.60;;;10.80;99.90;;;;;;4978145;28;20089;-84
2021/04/01 00:47:56;;;;;;;56.35;28.73;;;10.80;99.70;;;;;;4991871;28;20034;-83
2021/04/01 00:50:30;;;;;;;54.88;28.42;;;10.80;99.90;;;;;;4990504;28;20053;-84
2021/04/01 00:52:56;;;;;;;50.00;28.90;;;10.80;99.90;;;;;;4987138;28;20026;-84
2021/04/01 00:55:22;;;;;;;53.13;28.75;;;10.80;99.90;;;;;;4990801;28;20027;-83
2021/04/01 00:57:50;;;;;;;54.25;29.45;;;10.70;99.90;;;;;;4966083;28;20027;-83
2021/04/01 01:00:21;;;;;;;50.15;27.30;;;10.70;99.90;;;;;;4989080;28;20113;-83
2021/04/01 01:02:46;;;;;;;49.13;27.13;;;10.60;99.90;;;;;;4990010;28;20026;-83
2021/04/01 01:05:14;;;;;;;49.50;26.52;;;10.50;99.90;;;;;;4986234;28;20033;-84
2021/04/01 01:07:40;;;;;;;51.03;25.80;;;10.60;99.90;;;;;;4977738;28;20030;-84
2021/04/01 01:10:20;;;;;;;45.83;25.02;;;10.60;99.90;;;;;;4983207;28;20088;-84
2021/04/01 01:12:46;;;;;;;51.53;25.42;;;10.50;99.90;;;;;;4989602;28;20050;-83
2021/04/01 01:15:13;;;;;;;40.90;24.23;;;10.50;99.90;;;;;;4982768;28;20027;-83
2021/04/01 01:17:39;;;;;;;46.50;24.48;;;10.40;99.90;;;;;;4989994;28;20022;-83
2021/04/01 01:20:07;;;;;;;42.72;24.05;;;10.40;99.90;;;;;;4972952;28;20656;-84
2021/04/01 01:22:34;;;;;;;40.78;22.55;;;10.30;99.90;;;;;;4987460;28;20022;-83
2021/04/01 01:25:00;;;;;;;45.35;24.52;;;10.30;99.90;;;;;;4986607;28;20029;-84
2021/04/01 01:27:25;;;;;;;42.63;23.10;;;10.30;99.90;;;;;;4987615;28;20019;-84
2021/04/01 01:29:52;;;;;;;40.17;21.50;;;10.20;99.90;;;;;;4988580;28;20030;-83
2021/04/01 01:32:19;;;;;;;39.83;22.08;;;10.20;99.90;;;;;;4986943;28;20054;-84
2021/04/01 01:34:46;;;;;;;36.65;20.13;;;10.20;99.90;;;;;;4990393;28;20039;-84
2021/04/01 01:37:12;;;;;;;36.83;19.00;;;10.20;99.90;;;;;;4987984;28;20088;-83
2021/04/01 01:39:38;;;;;;;37.55;18.35;;;10.20;99.90;;;;;;4988659;28;20030;-83
2021/04/01 01:42:04;;;;;;;36.63;19.20;;;10.20;99.90;;;;;;4990156;28;20041;-83
2021/04/01 01:44:31;;;;;;;32.78;17.60;;;10.10;99.90;;;;;;4988762;28;20085;-83
2021/04/01 01:46:57;;;;;;;36.38;17.65;;;10.10;99.90;;;;;;4989080;28;20022;-84
2021/04/01 01:49:23;;;;;;;31.52;17.15;;;10.10;99.90;;;;;;4990644;28;20030;-83
2021/04/01 01:51:52;;;;;;;33.80;16.00;;;10.00;99.90;;;;;;4988489;28;20266;-83
2021/04/01 01:54:18;;;;;;;33.60;16.92;;;10.00;99.90;;;;;;4989293;28;20536;-84
2021/04/01 01:56:43;;;;;;;33.75;17.23;;;10.00;99.90;;;;;;4983007;28;20034;-84
2021/04/01 01:59:09;;;;;;;35.15;17.20;;;10.00;99.90;;;;;;4979193;28;20034;-84
2021/04/01 02:01:35;;;;;;;39.15;18.88;;;10.00;99.90;;;;;;4982923;28;20505;-84
2021/04/01 02:04:02;;;;;;;42.28;18.48;;;10.00;99.90;;;;;;4982848;28;20034;-84
2021/04/01 02:06:28;;;;;;;31.92;17.35;;;10.00;99.90;;;;;;4984128;28;20034;-84
2021/04/01 02:09:00;;;;;;;33.95;16.70;;;10.10;99.90;;;;;;4985768;28;20163;-83
2021/04/01 02:11:26;;;;;;;;;;;10.00;99.90;;;;;;4985571;28;20065;-84
2021/04/01 02:13:52;;;;;;;35.78;16.63;;;10.00;99.90;;;;;;4989825;28;19909;-84
2021/04/01 02:16:18;;;;;;;30.77;16.17;;;10.00;99.90;;;;;;4987860;28;20026;-83
2021/04/01 02:18:44;;;;;;;30.48;15.70;;;10.00;99.90;;;;;;4988772;28;20521;-83
2021/04/01 02:21:10;;;;;;;32.40;15.48;;;10.10;99.90;;;;;;4983685;28;20027;-83
2021/04/01 02:23:37;;;;;;;26.30;14.57;;;10.10;99.90;;;;;;4978944;28;20034;-84
2021/04/01 02:26:04;;;;;;;28.70;15.82;;;10.10;99.90;;;;;;4987666;28;20092;-83
2021/04/01 02:28:32;;;;;;;29.85;15.90;;;10.10;99.90;;;;;;4982681;28;20554;-83
2021/04/01 02:31:00;;;;;;;26.83;14.00;;;10.10;99.90;;;;;;4988792;28;20038;-84
2021/04/01 02:33:28;;;;;;;29.88;14.40;;;10.20;99.90;;;;;;4982810;28;20408;-83
2021/04/01 02:35:55;;;;;;;24.85;14.00;;;10.10;99.90;;;;;;4986680;28;20034;-83
2021/04/01 02:38:24;;;;;;;27.58;14.20;;;10.20;99.90;;;;;;4984236;28;20023;-83
2021/04/01 02:40:52;;;;;;;25.35;13.30;;;10.20;99.90;;;;;;4983785;28;20030;-83
2021/04/01 02:43:27;;;;;;;26.58;13.68;;;10.20;99.90;;;;;;4988784;28;20074;-84
2021/04/01 02:45:53;;;;;;;24.42;13.38;;;10.10;99.90;;;;;;4988772;28;20030;-84
2021/04/01 02:48:18;;;;;;;24.27;13.05;;;10.10;99.90;;;;;;4984899;28;20042;-84
2021/04/01 02:50:44;;;;;;;27.95;13.52;;;10.10;99.90;;;;;;4988903;28;20065;-84
2021/04/01 02:53:10;;;;;;;28.98;13.82;;;10.20;99.90;;;;;;4985934;28;20027;-84
2021/04/01 02:55:36;;;;;;;19.88;11.52;;;10.10;99.90;;;;;;4984898;28;20038;-83
2021/04/01 02:58:01;;;;;;;25.45;12.30;;;10.20;99.90;;;;;;4988451;28;20038;-83
2021/04/01 03:00:28;;;;;;;25.35;12.63;;;10.20;99.90;;;;;;4985838;28;20473;-83
2021/04/01 03:03:04;;;;;;;21.58;12.18;;;10.20;99.90;;;;;;4987384;28;20073;-83
2021/04/01 03:05:30;;;;;;;26.30;11.40;;;10.20;99.90;;;;;;4987370;28;20022;-83
2021/04/01 03:07:55;;;;;;;20.65;11.63;;;10.20;99.90;;;;;;4988488;28;20033;-84
2021/04/01 03:10:21;;;;;;;22.08;12.50;;;10.30;99.90;;;;;;4980332;28;20039;-83
2021/04/01 03:12:47;;;;;;;22.90;11.13;;;10.30;99.90;;;;;;4990858;28;20413;-83
2021/04/01 03:15:13;;;;;;;21.80;11.15;;;10.30;99.90;;;;;;4987775;28;20026;-83
2021/04/01 03:17:41;;;;;;;22.98;11.50;;;10.30;99.90;;;;;;4984495;28;20026;-83
2021/04/01 03:20:08;;;;;;;19.67;11.13;;;10.30;99.90;;;;;;4972887;28;20150;-84
2021/04/01 03:22:33;;;;;;;18.00;10.38;;;10.30;99.90;;;;;;4988198;28;20033;-83
2021/04/01 03:24:59;;;;;;;19.98;10.48;;;10.20;99.90;;;;;;4987683;28;20023;-83
2021/04/01 03:27:25;;;;;;;17.58;9.73;;;10.20;99.90;;;;;;4987996;28;20038;-83
2021/04/01 03:30:04;;;;;;;22.33;9.85;;;10.20;99.90;;;;;;4987937;28;20500;-83
2021/04/01 03:32:34;;;;;;;17.88;9.38;;;10.20;99.90;;;;;;4987704;28;20077;-83
2021/04/01 03:35:00;;;;;;;20.98;10.00;;;10.20;99.90;;;;;;4986996;28;20104;-83
2021/04/01 03:37:25;;;;;;;21.88;10.40;;;10.20;99.90;;;;;;4982760;28;20731;-83
2021/04/01 03:39:52;;;;;;;16.33;9.02;;;10.20;99.90;;;;;;4975352;28;20441;-83
2021/04/01 03:42:17;;;;;;;17.38;9.05;;;10.20;99.90;;;;;;4978878;28;20130;-83
2021/04/01 03:44:43;;;;;;;24.00;9.63;;;10.20;99.90;;;;;;4984755;28;20520;-82
2021/04/01 03:47:09;;;;;;;21.30;9.10;;;10.20;99.90;;;;;;4980951;28;20057;-83
2021/04/01 03:49:34;;;;;;;17.73;8.93;;;10.30;99.90;;;;;;4965084;28;20022;-83
2021/04/01 03:52:00;;;;;;;14.20;8.27;;;10.30;99.90;;;;;;4988310;28;20035;-83
2021/04/01 03:54:25;;;;;;;17.27;8.73;;;10.20;99.90;;;;;;4988520;28;20026;-83
2021/04/01 03:56:51;;;;;;;15.90;9.02;;;10.20;99.90;;;;;;4983331;28;20524;-83
2021/04/01 03:59:20;;;;;;;19.98;9.07;;;10.20;99.90;;;;;;4984199;28;20057;-83
2021/04/01 04:07:31;;;;;;;15.25;8.38;;;10.20;99.90;;;;;;4989170;28;20023;-83
2021/04/01 04:09:58;;;;;;;15.50;8.60;;;10.30;99.90;;;;;;4979558;28;20035;-83
2021/04/01 04:15:03;;;;;;;20.23;8.38;;;10.30;99.90;;;;;;4988508;28;20026;-83
2021/04/01 04:17:29;;;;;;;22.42;8.75;;;10.40;99.90;;;;;;4989776;28;20042;-83
2021/04/01 04:19:54;;;;;;;17.92;8.27;;;10.50;99.60;;;;;;4984400;28;20053;-83
2021/04/01 04:22:20;;;;;;;15.07;8.65;;;10.60;99.90;;;;;;4989911;28;20022;-83
2021/04/01 04:24:45;;;;;;;16.70;7.63;;;10.60;99.70;;;;;;4991817;28;20032;-83
2021/04/01 04:30:02;;;;;;;14.65;7.40;;;10.80;97.20;;;;;;4978903;28;20061;-83
2021/04/01 04:32:34;;;;;;;20.33;8.05;;;10.90;99.60;;;;;;4998074;28;20030;-83
2021/04/01 04:35:00;;;;;;;16.45;7.80;;;10.90;99.90;;;;;;4966828;28;20529;-82
2021/04/01 04:37:26;;;;;;;13.75;7.43;;;10.80;99.90;;;;;;4991660;28;20042;-83
2021/04/01 04:39:52;;;;;;;14.18;8.23;;;10.80;99.90;;;;;;4990189;28;20034;-83
2021/04/01 04:42:18;;;;;;;15.30;8.15;;;10.80;99.90;;;;;;4987128;28;20022;-83
2021/04/01 04:44:43;;;;;;;13.68;7.43;;;10.80;99.40;;;;;;4990390;28;20026;-83
2021/04/01 04:47:09;;;;;;;16.05;8.55;;;10.80;99.20;;;;;;4985834;28;20085;-84
2021/04/01 04:49:34;;;;;;;18.88;8.68;;;10.80;98.10;;;;;;4987438;28;20389;-83
2021/04/01 04:52:00;;;;;;;12.68;7.78;;;10.90;95.30;;;;;;4985789;28;20037;-82
2021/04/01 04:54:30;;;;;;;19.90;7.95;;;11.00;96.20;;;;;;4981121;28;20042;-83
2021/04/01 04:56:59;;;;;;;16.58;8.10;;;11.00;99.70;;;;;;4990380;28;20539;-83
2021/04/01 04:59:30;;;;;;;14.68;7.43;;;11.00;97.10;;;;;;4990905;28;20540;-83
2021/04/01 05:04:43;;;;;;;15.82;7.60;;;11.00;99.30;;;;;;4990868;28;20289;-83
2021/04/01 05:07:08;;;;;;;15.70;8.25;;;11.00;97.90;;;;;;4990690;28;20041;-83
2021/04/01 05:09:34;;;;;;;17.30;8.00;;;10.90;98.80;;;;;;4985847;28;20023;-83
2021/04/01 05:11:59;;;;;;;15.98;8.05;;;10.90;97.70;;;;;;4991781;28;20027;-84
2021/04/01 05:14:25;;;;;;;14.63;7.97;;;11.00;98.60;;;;;;4981058;28;20030;-83
2021/04/01 05:16:51;;;;;;;15.68;8.43;;;11.00;98.30;;;;;;4990213;28;20386;-81
2021/04/01 05:19:17;;;;;;;23.88;8.43;;;11.20;94.90;;;;;;4987231;28;20037;-79
2021/04/01 05:21:50;;;;;;;23.80;8.27;;;11.20;94.10;;;;;;4990872;28;20473;-80
2021/04/01 05:24:18;;;;;;;16.02;8.25;;;11.30;96.20;;;;;;4983904;28;20105;-83
2021/04/01 05:29:57;;;;;;;15.30;8.32;;;11.40;93.30;;;;;;4984389;28;20026;-83
2021/04/01 05:32:31;;;;;;;20.27;8.23;;;11.50;94.40;;;;;;4983603;28;20058;-83
2021/04/01 05:34:59;;;;;;;16.95;8.25;;;11.50;93.60;;;;;;4990712;28;20050;-85
2021/04/01 05:37:27;;;;;;;14.60;8.02;;;11.60;91.80;;;;;;4969204;28;20740;-84
2021/04/01 05:39:58;;;;;;;21.70;7.85;;;11.70;90.80;;;;;;4986517;28;20030;-82
2021/04/01 05:42:31;;;;;;;17.83;8.32;;;11.80;90.80;;;;;;4991205;28;20085;-82
2021/04/01 05:45:05;;;;;;;16.75;8.23;;;11.90;89.90;;;;;;4993018;28;20031;-82
2021/04/01 05:48:08;;;;;;;15.48;7.90;;;11.90;92.70;;;;;;4986129;28;20529;-84
2021/04/01 05:50:41;;;;;;;14.90;8.27;;;11.90;95.60;;;;;;4984339;28;20054;-84
2021/04/01 05:53:49;;;;;;;15.98;8.55;;;11.90;96.00;;;;;;4988827;28;20042;-84
2021/04/01 06:04:16;;;;;;;22.73;8.02;;;12.00;94.10;;;;;;4991385;28;20125;-84
2021/04/01 06:06:53;;;;;;;18.77;8.68;;;12.00;95.50;;;;;;4986842;28;20065;-83
2021/04/01 06:09:34;;;;;;;15.25;7.68;;;12.10;95.00;;;;;;4984584;28;20077;-84
2021/04/01 06:12:00;;;;;;;;;;;12.10;96.30;;;;;;4990034;28;20041;-84
2021/04/01 06:14:38;;;;;;;16.85;7.95;;;12.20;95.90;;;;;;4986808;28;20284;-84
2021/04/01 06:17:17;;;;;;;18.92;8.98;;;12.20;96.30;;;;;;4979125;28;20030;-84
2021/04/01 06:19:52;;;;;;;19.45;8.30;;;12.30;92.70;;;;;;4982836;28;20042;-84
2021/04/01 06:22:20;;;;;;;16.73;7.93;;;12.30;97.60;;;;;;4983423;28;20031;-84
2021/04/01 06:24:49;;;;;;;20.40;8.93;;;12.40;94.30;;;;;;4980741;28;20031;-83
2021/04/01 06:27:37;;;;;;;18.63;8.52;;;12.40;91.20;;;;;;4988208;28;20385;-84
2021/04/01 06:32:48;;;;;;;22.92;8.95;;;12.60;87.70;;;;;;4989017;28;20030;-84
2021/04/01 06:35:33;;;;;;;21.33;8.87;;;12.70;88.20;;;;;;4964001;28;20125;-83
2021/04/01 06:40:46;;;;;;;29.08;10.23;;;12.90;84.70;;;;;;4957981;28;20085;-83
2021/04/01 06:43:17;;;;;;;22.77;8.85;;;13.00;83.40;;;;;;4960826;28;20027;-83
2021/04/01 06:45:55;;;;;;;16.10;8.30;;;13.10;81.80;;;;;;4954180;28;20026;-83
2021/04/01 06:48:24;;;;;;;17.77;8.68;;;13.10;82.30;;;;;;4943822;28;20063;-84
2021/04/01 06:51:04;;;;;;;18.75;8.27;;;13.10;81.50;;;;;;4969400;28;20094;-84
2021/04/01 06:53:50;;;;;;;19.45;8.52;;;13.10;82.40;;;;;;4965478;28;20034;-84
2021/04/01 07:01:55;;;;;;;18.30;8.48;;;13.40;85.70;;;;;;4966415;28;20030;-84
2021/04/01 07:04:22;;;;;;;18.73;8.77;;;13.40;82.70;;;;;;4966767;28;20739;-84
2021/04/01 07:07:07;;;;;;;18.85;9.30;;;13.50;80.10;;;;;;4973081;28;20034;-84
2021/04/01 07:12:17;;;;;;;22.05;8.45;;;13.50;82.20;;;;;;4965758;28;20073;-84
2021/04/01 07:14:47;;;;;;;19.35;9.35;;;13.50;81.40;;;;;;4960340;28;20039;-84
2021/04/01 07:17:39;;;;;;;20.45;9.75;;;13.60;80.80;;;;;;4961444;28;20470;-84
2021/04/01 07:48:46;;;;;;;26.15;9.80;;;14.20;82.80;;;;;;4992135;28;20031;-83
2021/04/01 07:54:10;;;;;;;21.88;10.25;;;14.40;77.50;;;;;;4989305;28;20032;-80
2021/04/01 07:56:54;;;;;;;28.88;11.68;;;14.50;77.10;;;;;;4991373;28;20041;-82
2021/04/01 07:59:32;;;;;;;22.20;10.18;;;14.60;75.90;;;;;;4989484;28;20036;-81
2021/04/01 08:02:11;;;;;;;25.75;10.45;;;14.70;74.80;;;;;;4984315;28;21748;-81
2021/04/01 08:04:44;;;;;;;22.60;10.48;;;14.80;75.40;;;;;;4989459;28;20031;-81
2021/04/01 08:07:13;;;;;;;22.77;11.20;;;14.90;73.40;;;;;;4991411;28;20057;-81
2021/04/01 08:09:42;;;;;;;23.75;10.43;;;14.90;76.70;;;;;;4983053;28;20114;-81
2021/04/01 08:12:27;;;;;;;18.98;10.07;;;15.00;76.00;;;;;;4982886;28;20030;-80
2021/04/01 08:15:02;;;;;;;20.08;10.32;;;15.10;76.90;;;;;;4982207;28;20041;-80
2021/04/01 08:17:34;;;;;;;24.65;10.93;;;15.20;77.00;;;;;;4987041;28;20050;-81
2021/04/01 08:20:01;;;;;;;23.85;10.90;;;15.30;73.20;;;;;;4991353;28;20030;-81
2021/04/01 08:22:28;;;;;;;24.00;10.27;;;15.40;71.90;;;;;;4988470;28;20065;-81
2021/04/01 08:25:03;;;;;;;21.35;10.98;;;15.60;69.50;;;;;;4987151;28;20084;-81
2021/04/01 08:27:56;;;;;;;24.08;11.15;;;15.60;67.80;;;;;;4983964;28;20038;-80
2021/04/01 08:33:26;;;;;;;21.55;10.25;;;15.50;67.90;;;;;;4957731;28;20085;-81
2021/04/01 08:35:56;;;;;;;25.30;10.50;;;15.40;67.80;;;;;;4983492;28;20114;-81
2021/04/01 08:38:22;;;;;;;25.63;11.02;;;15.30;67.50;;;;;;4989533;28;20041;-80
2021/04/01 08:40:49;;;;;;;22.40;10.82;;;15.20;67.90;;;;;;4987216;28;20818;-81
2021/04/01 08:43:37;;;;;;;24.42;10.85;;;15.10;68.10;;;;;;4990447;28;20388;-81
2021/04/01 08:46:13;;;;;;;22.00;11.20;;;15.10;68.60;;;;;;4988014;28;20038;-79
2021/04/01 08:49:02;;;;;;;24.55;10.23;;;15.00;69.00;;;;;;4989060;28;20068;-80
2021/04/01 08:52:02;;;;;;;25.95;11.15;;;15.00;69.40;;;;;;4990710;28;20080;-79
2021/04/01 08:54:48;;;;;;;28.92;12.07;;;15.00;70.00;;;;;;4981941;28;20030;-84
2021/04/01 08:57:33;;;;;;;23.25;11.48;;;15.00;69.10;;;;;;4985771;28;20050;-76
2021/04/01 09:00:11;;;;;;;27.38;11.52;;;15.00;70.10;;;;;;4984604;28;20485;-76
2021/04/01 09:02:37;;;;;;;26.35;10.93;;;15.00;69.90;;;;;;4985128;28;20064;-76
2021/04/01 09:05:08;;;;;;;25.80;12.30;;;15.10;71.70;;;;;;4990540;28;20032;-73
2021/04/01 09:08:00;;;;;;;31.55;13.02;;;15.10;69.70;;;;;;4989353;28;20315;-78
2021/04/01 09:10:37;;;;;;;31.02;13.90;;;15.20;70.70;;;;;;4986664;28;20034;-78
2021/04/01 09:13:10;;;;;;;29.02;13.73;;;15.20;70.00;;;;;;4990109;28;20107;-78
2021/04/01 09:15:47;;;;;;;32.72;12.40;;;15.30;70.20;;;;;;4991117;28;20171;-77
2021/04/01 09:18:28;;;;;;;32.92;12.82;;;15.30;70.00;;;;;;4989748;28;20635;-77
2021/04/01 09:20:57;;;;;;;28.63;14.02;;;15.40;69.10;;;;;;4981432;28;20034;-76
2021/04/01 09:23:35;;;;;;;30.88;12.68;;;15.50;69.20;;;;;;4989269;28;20026;-78
2021/04/01 09:26:03;;;;;;;29.58;13.32;;;15.60;68.90;;;;;;4985177;28;20466;-77
2021/04/01 09:28:34;;;;;;;28.77;13.38;;;15.70;69.50;;;;;;4986983;28;20335;-77
2021/04/01 09:31:02;;;;;;;29.40;14.27;;;15.80;67.70;;;;;;4983840;28;20865;-77
2021/04/01 09:33:32;;;;;;;36.20;13.40;;;15.90;65.90;;;;;;4989092;28;20042;-79
2021/04/01 09:36:06;;;;;;;29.55;13.50;;;16.00;66.30;;;;;;4990525;28;20675;-80
2021/04/01 09:38:44;;;;;;;34.92;14.95;;;16.10;66.60;;;;;;4988926;28;20042;-79
2021/04/01 09:41:23;;;;;;;28.38;13.52;;;16.20;67.60;;;;;;4966417;28;20172;-79
2021/04/01 09:43:52;;;;;;;44.45;14.77;;;16.40;67.90;;;;;;4984500;28;20042;-76
2021/04/01 09:46:20;;;;;;;29.27;13.57;;;16.50;66.20;;;;;;4988554;28;20030;-80
2021/04/01 09:49:03;;;;;;;31.02;14.05;;;16.60;65.50;;;;;;4988521;28;20439;-79
2021/04/01 09:51:31;;;;;;;30.58;14.20;;;16.70;63.30;;;;;;4985595;28;20038;-81
2021/04/01 09:53:58;;;;;;;44.42;15.57;;;16.70;64.30;;;;;;4983192;28;20117;-75
2021/04/01 09:56:25;;;;;;;34.15;14.43;;;16.80;65.50;;;;;;4986965;28;20073;-75
2021/04/01 09:58:52;;;;;;;30.80;14.73;;;16.80;63.40;;;;;;4985649;28;20548;-77
2021/04/01 10:04:05;;;;;;;31.85;14.20;;;16.90;63.70;;;;;;4974661;28;20117;-75
2021/04/01 10:06:40;;;;;;;30.10;13.98;;;17.00;64.30;;;;;;4972559;28;20081;-74
2021/04/01 10:09:11;;;;;;;34.00;15.50;;;17.10;63.90;;;;;;4987624;28;20027;-74
2021/04/01 10:11:43;;;;;;;30.80;14.77;;;17.10;65.30;;;;;;4969506;28;20025;-77
2021/04/01 10:14:10;;;;;;;29.38;13.77;;;17.00;64.80;;;;;;4987682;28;20030;-86
2021/04/01 10:16:51;;;;;;;31.55;15.23;;;17.00;63.10;;;;;;4982763;28;20035;-76
2021/04/01 10:19:21;;;;;;;37.10;14.85;;;17.00;63.50;;;;;;4973111;28;20096;-75
2021/04/01 10:21:46;;;;;;;35.80;14.50;;;16.90;62.70;;;;;;4964806;28;20125;-75
2021/04/01 10:24:26;;;;;;;33.60;15.30;;;17.00;64.10;;;;;;4988400;28;20109;-73
2021/04/01 10:27:29;;;;;;;32.50;14.57;;;17.00;63.10;;;;;;4988707;28;20027;-74
2021/04/01 10:32:40;;;;;;;41.78;16.73;;;17.10;61.00;;;;;;4980860;28;20386;-72
2021/04/01 10:35:07;;;;;;;;;;;17.00;62.70;;;;;;4983796;28;20046;-72
2021/04/01 10:37:33;;;;;;;34.05;14.63;;;17.00;61.40;;;;;;4990165;28;19910;-72
2021/04/01 10:40:00;;;;;;;36.13;15.48;;;16.90;61.80;;;;;;4986306;28;20037;-71
2021/04/01 10:42:31;;;;;;;38.85;17.25;;;16.80;60.80;;;;;;4978838;28;20031;-71
2021/04/01 10:45:07;;;;;;;34.83;15.57;;;16.80;60.80;;;;;;4987324;28;20033;-71
2021/04/01 10:48:01;;;;;;;37.05;15.73;;;16.80;62.60;;;;;;4977270;28;20030;-71
2021/04/01 10:50:28;;;;;;;35.70;15.65;;;16.70;62.80;;;;;;4981070;28;20457;-70
2021/04/01 10:52:57;;;;;;;38.80;15.48;;;16.70;61.80;;;;;;4970503;28;20034;-70
2021/04/01 10:55:27;;;;;;;35.17;15.88;;;16.70;63.30;;;;;;4988346;28;20030;-72
2021/04/01 10:57:53;;;;;;;32.67;15.43;;;16.70;62.90;;;;;;4989426;28;20489;-72
2021/04/01 11:00:20;;;;;;;34.50;15.60;;;16.70;63.50;;;;;;4980455;28;20069;-76
2021/04/01 11:02:54;;;;;;;38.75;16.35;;;16.70;62.80;;;;;;4974986;28;20117;-72
2021/04/01 11:05:21;;;;;;;36.40;15.95;;;16.70;62.90;;;;;;4986915;28;20069;-73
2021/04/01 11:07:49;;;;;;;30.30;14.88;;;16.70;67.00;;;;;;4989679;28;20035;-73
2021/04/01 11:10:23;;;;;;;32.05;15.00;;;16.80;72.20;;;;;;4988965;28;20057;-73
2021/04/01 11:12:51;;;;;;;32.47;14.88;;;17.00;71.20;;;;;;4987054;28;20498;-73
2021/04/01 11:15:21;;;;;;;32.88;15.68;;;17.10;72.40;;;;;;4974527;28;20105;-73
2021/04/01 11:17:51;;;;;;;34.15;16.30;;;17.30;68.90;;;;;;4980441;28;20065;-74
2021/04/01 11:20:21;;;;;;;38.03;15.80;;;17.60;66.20;;;;;;4984840;28;20027;-71
2021/04/01 11:23:10;;;;;;;34.63;16.02;;;17.80;60.80;;;;;;4985671;28;20038;-71
2021/04/01 11:25:45;;;;;;;34.15;15.35;;;18.00;61.40;;;;;;4991356;28;20489;-72
2021/04/01 11:28:11;;;;;;;38.28;16.52;;;18.30;60.40;;;;;;4985506;28;20393;-74
2021/04/01 11:30:49;;;;;;;38.05;15.82;;;18.40;59.20;;;;;;4992637;28;20036;-76
2021/04/01 11:33:18;;;;;;;37.15;15.57;;;18.30;57.40;;;;;;4991195;28;20021;-72
2021/04/01 11:35:47;;;;;;;34.13;15.02;;;18.20;58.50;;;;;;4991781;28;20032;-74
2021/04/01 11:38:23;;;;;;;34.83;14.95;;;18.00;57.40;;;;;;4990398;28;20041;-73
2021/04/01 11:41:03;;;;;;;34.42;14.15;;;17.90;59.10;;;;;;4986165;28;20489;-73
2021/04/01 11:43:44;;;;;;;34.80;14.73;;;17.80;58.20;;;;;;4987482;28;20066;-73
2021/04/01 11:46:22;;;;;;;29.90;13.63;;;17.80;58.50;;;;;;4989120;28;20092;-73
2021/04/01 11:48:51;;;;;;;33.40;13.88;;;17.90;58.70;;;;;;4985505;28;20050;-74
2021/04/01 11:51:22;;;;;;;35.25;15.07;;;17.90;59.10;;;;;;4980468;28;20060;-74
2021/04/01 11:53:48;;;;;;;32.77;14.23;;;18.00;57.90;;;;;;4985702;28;20440;-76
2021/04/01 11:56:14;;;;;;;34.25;13.85;;;18.20;57.20;;;;;;4982614;28;20926;-77
2021/04/01 11:58:40;;;;;;;30.30;13.23;;;18.40;57.20;;;;;;4981033;28;20034;-75
2021/04/01 12:04:01;;;;;;;32.67;13.90;;;18.70;56.20;;;;;;4985851;28;20057;-76
2021/04/01 12:06:29;;;;;;;32.13;13.73;;;18.80;56.10;;;;;;4968823;28;20441;-75
2021/04/01 12:08:56;;;;;;;39.30;15.50;;;18.90;55.90;;;;;;4979508;28;20409;-76
2021/04/01 12:11:21;;;;;;;28.80;13.02;;;19.00;54.50;;;;;;4987776;28;20034;-76
2021/04/01 12:13:47;;;;;;;39.25;15.80;;;18.90;53.70;;;;;;4987662;28;20019;-75
2021/04/01 12:16:30;;;;;;;39.45;15.25;;;19.10;53.40;;;;;;4982018;28;20382;-75
2021/04/01 12:18:56;;;;;;;35.17;15.00;;;19.40;52.90;;;;;;4982981;28;20080;-76
2021/04/01 12:21:22;;;;;;;32.13;13.18;;;19.50;52.70;;;;;;4985106;28;20109;-76
2021/04/01 12:23:52;;;;;;;32.45;13.95;;;19.40;51.80;;;;;;4987030;28;20101;-76
2021/04/01 12:26:17;;;;;;;33.25;13.70;;;19.20;51.60;;;;;;4989858;28;20375;-76
2021/04/01 12:28:53;;;;;;;32.95;13.93;;;19.10;52.10;;;;;;4986114;28;20037;-75
2021/04/01 12:31:32;;;;;;;32.75;14.75;;;19.00;53.70;;;;;;4986488;28;20110;-76
2021/04/01 12:33:57;;;;;;;38.20;15.45;;;19.00;54.20;;;;;;4985738;28;20644;-77
2021/04/01 12:36:35;;;;;;;32.72;14.38;;;19.10;57.00;;;;;;4986526;28;20113;-76
2021/04/01 12:39:03;;;;;;;40.95;15.73;;;19.50;55.80;;;;;;4983120;28;20504;-76
2021/04/01 12:41:32;;;;;;;39.72;16.90;;;20.20;55.10;;;;;;4985346;28;20042;-76
2021/04/01 12:43:58;;;;;;;33.78;17.33;;;20.60;56.40;;;;;;4985946;28;20658;-76
2021/04/01 12:46:34;;;;;;;32.05;15.25;;;20.60;56.40;;;;;;4984844;28;20023;-76
2021/04/01 12:49:00;;;;;;;34.60;17.42;;;20.40;56.10;;;;;;4987014;28;20385;-76
2021/04/01 12:51:26;;;;;;;34.65;16.38;;;20.30;57.30;;;;;;4986098;28;20106;-76
2021/04/01 12:54:05;;;;;;;34.28;16.15;;;20.10;57.40;;;;;;4987210;28;20113;-77
2021/04/01 12:56:39;;;;;;;40.33;18.90;;;20.00;57.00;;;;;;4987884;28;20030;-77
2021/04/01 12:59:07;;;;;;;43.78;17.40;;;19.80;55.30;;;;;;4988080;28;20026;-77
2021/04/01 13:01:42;;;;;;;41.30;18.23;;;19.50;55.20;;;;;;4982576;28;20106;-76
2021/04/01 13:04:11;;;;;;;37.50;16.80;;;19.30;53.80;;;;;;4990295;28;20045;-77
2021/04/01 13:06:49;;;;;;;40.90;17.08;;;18.90;56.40;;;;;;4982116;28;20082;-78
2021/04/01 13:09:27;;;;;;;47.45;17.92;;;18.70;58.80;;;;;;4984460;28;20026;-77
2021/04/01 13:11:54;;;;;;;36.20;16.63;;;18.50;63.50;;;;;;4980039;28;20031;-76
2021/04/01 13:14:21;;;;;;;37.78;16.42;;;18.40;61.70;;;;;;4984275;28;20092;-80
2021/04/01 13:16:47;;;;;;;39.83;16.40;;;18.60;59.40;;;;;;4977896;28;20031;-76
2021/04/01 13:19:13;;;;;;;43.40;17.60;;;19.10;60.70;;;;;;4983607;28;20027;-76
2021/04/01 13:26:46;;;;;;;37.67;18.33;;;19.60;60.00;;;;;;4986318;28;20101;-75
2021/04/01 13:29:15;;;;;;;38.58;17.77;;;19.50;60.00;;;;;;4986663;28;20060;-73
2021/04/01 13:37:04;;;;;;;35.88;18.23;;;19.20;61.10;;;;;;4984716;28;20026;-73
2021/04/01 13:39:39;;;;;;;42.28;18.92;;;19.20;61.20;;;;;;4988771;28;20113;-72
2021/04/01 13:42:16;;;;;;;37.45;19.02;;;19.20;62.50;;;;;;4986438;28;20039;-73
2021/04/01 13:45:08;;;;;;;41.78;19.55;;;19.10;62.50;;;;;;4987785;28;20038;-73
2021/04/01 13:47:28;;;;;;;36.95;17.75;;;18.90;64.20;;;;;;4985060;28;20041;-73
2021/04/01 13:49:56;;;;;;;33.55;18.23;;;18.80;65.00;;;;;;4988617;28;20053;-73
2021/04/01 13:52:35;;;;;;;39.58;18.65;;;18.70;64.70;;;;;;4986981;28;20034;-72
2021/04/01 13:55:12;;;;;;;38.17;19.50;;;18.50;66.10;;;;;;4971336;28;20026;-73
2021/04/01 14:11:22;;;;;;;43.35;20.35;;;18.00;63.50;;;;;;4983213;28;20038;-71
2021/04/01 14:13:47;;;;;;;40.88;22.08;;;18.60;65.60;;;;;;4986361;28;20034;-72
2021/04/01 14:16:14;;;;;;;48.78;23.42;;;19.40;61.60;;;;;;4990526;28;20026;-72
2021/04/01 14:18:43;;;;;;;46.67;22.55;;;19.50;58.80;;;;;;4987401;28;20027;-73
2021/04/01 14:21:08;;;;;;;51.92;22.85;;;19.50;59.40;;;;;;4987932;28;20037;-72
2021/04/01 14:23:36;;;;;;;38.33;21.13;;;19.40;58.20;;;;;;4986102;28;20035;-70
2021/04/01 14:26:11;;;;;;;51.17;22.27;;;19.20;58.70;;;;;;4986429;28;20038;-75
2021/04/01 14:28:36;;;;;;;45.97;21.30;;;19.20;58.60;;;;;;4978681;28;20105;-75
2021/04/01 14:31:07;;;;;;;45.28;21.55;;;19.30;58.50;;;;;;4987735;28;20129;-77
2021/04/01 14:33:33;;;;;;;45.25;22.20;;;19.20;58.50;;;;;;4983474;28;20045;-75